Time;durP1;ratioP1;P1;durP2;ratioP2;P2;SDS_P1;SDS_P2;PMS_P1;PMS_P2;Temp;Humidity;BMP_temperature;BMP_pressure;BME280_temperature;BME280_humidity;BME280_pressure;Samples;Min_cycle;Max_cycle;Signal;HPM_P1;HPM_P2
2024/01/02 15:33:37;;;;;;;17.88;6.13;;;5.50;99.90;;;;;;5135427;27;20125;-60
2024/01/02 15:36:25;;;;;;;20.88;6.18;;;5.50;99.90;;;;;;5124961;27;20102;-56
2024/01/02 15:39:10;;;;;;;18.67;6.43;;;5.50;99.90;;;;;;5127101;27;20035;-61
2024/01/02 15:41:44;;;;;;;16.23;6.70;;;5.50;99.90;;;;;;5121452;27;20062;-55
2024/01/02 15:44:23;;;;;;;18.75;6.80;;;5.50;99.90;;;;;;5126104;27;20059;-59
2024/01/02 15:47:03;;;;;;;16.33;6.40;;;5.50;99.90;;;;;;5128272;27;20080;-59
2024/01/02 15:49:37;;;;;;;24.70;7.70;;;5.60;99.90;;;;;;5136199;27;20377;-59
2024/01/02 15:52:03;;;;;;;18.50;6.63;;;5.60;99.90;;;;;;5144974;27;20058;-59
2024/01/02 15:54:32;;;;;;;15.38;5.82;;;5.60;99.90;;;;;;5137847;27;20479;-56
2024/01/02 15:57:08;;;;;;;15.48;6.03;;;5.60;99.90;;;;;;5104225;28;20028;-57
2024/01/02 15:59:58;;;;;;;17.80;6.20;;;5.70;99.90;;;;;;5103649;28;20058;-57
2024/01/02 16:02:28;;;;;;;9.77;4.68;;;5.70;99.90;;;;;;5102755;28;20042;-58
2024/01/02 16:05:20;;;;;;;14.18;4.43;;;5.80;99.90;;;;;;5102598;28;20043;-59
2024/01/02 16:08:01;;;;;;;15.15;5.00;;;5.80;99.90;;;;;;5103057;28;20114;-58
2024/01/02 16:10:26;;;;;;;15.20;6.05;;;5.80;99.90;;;;;;5102792;28;20031;-55
2024/01/02 16:13:21;;;;;;;11.80;5.78;;;5.80;99.90;;;;;;5101946;28;20039;-57
2024/01/02 16:16:09;;;;;;;14.70;6.43;;;5.80;99.90;;;;;;5074659;28;20051;-60
2024/01/02 16:18:55;;;;;;;14.93;5.18;;;5.80;99.90;;;;;;5107106;28;20061;-58
2024/01/02 16:21:35;;;;;;;12.88;3.95;;;5.80;99.90;;;;;;5107214;28;20513;-54
2024/01/02 16:24:43;;;;;;;12.60;5.05;;;5.90;99.90;;;;;;5125356;27;20138;-60
2024/01/02 16:27:09;;;;;;;13.00;4.10;;;5.80;99.90;;;;;;5023306;28;20563;-59
2024/01/02 16:30:12;;;;;;;14.13;4.95;;;5.80;99.90;;;;;;5106619;28;20088;-58
2024/01/02 16:32:53;;;;;;;12.82;4.70;;;5.80;99.90;;;;;;5123162;28;20066;-57
2024/01/02 16:35:24;;;;;;;13.25;4.68;;;5.80;99.90;;;;;;5103975;28;20032;-59
2024/01/02 16:38:07;;;;;;;15.50;5.95;;;5.80;99.90;;;;;;5122304;28;20112;-58
2024/01/02 16:40:55;;;;;;;13.15;5.43;;;5.80;99.90;;;;;;5122022;28;20045;-59
2024/01/02 16:43:21;;;;;;;17.05;6.43;;;5.70;99.90;;;;;;5114268;28;20031;-56
2024/01/02 16:45:48;;;;;;;16.13;6.72;;;5.70;99.90;;;;;;5108137;28;20106;-58
2024/01/02 16:48:17;;;;;;;12.30;4.63;;;5.70;99.90;;;;;;5108281;28;20038;-59
2024/01/02 16:50:47;;;;;;;14.63;5.78;;;5.60;99.90;;;;;;5108121;28;20293;-58
2024/01/02 16:53:16;;;;;;;14.80;5.57;;;5.60;99.90;;;;;;5108070;28;20072;-59
2024/01/02 16:55:43;;;;;;;15.80;5.68;;;5.60;99.90;;;;;;5108307;28;20458;-56
2024/01/02 16:58:14;;;;;;;21.73;7.07;;;5.60;99.90;;;;;;5109694;28;20034;-56
2024/01/02 17:00:44;;;;;;;16.05;5.78;;;5.50;99.90;;;;;;5109457;28;20035;-62
2024/01/02 17:03:10;;;;;;;15.98;6.22;;;5.50;99.90;;;;;;5109128;28;20115;-57
2024/01/02 17:05:36;;;;;;;17.40;7.15;;;5.60;99.90;;;;;;5109431;28;20492;-60
2024/01/02 17:08:04;;;;;;;16.45;7.43;;;5.50;99.90;;;;;;5109245;28;20047;-56
2024/01/02 17:10:31;;;;;;;16.33;7.55;;;5.50;99.90;;;;;;5109244;28;20070;-57
2024/01/02 17:13:02;;;;;;;17.50;8.10;;;5.50;99.90;;;;;;5109480;28;20067;-57
2024/01/02 17:15:28;;;;;;;20.02;8.68;;;5.50;99.90;;;;;;5109035;28;20038;-57
2024/01/02 17:17:57;;;;;;;20.63;8.82;;;5.50;99.90;;;;;;5109472;28;20393;-56
2024/01/02 17:20:27;;;;;;;19.35;9.88;;;5.50;99.90;;;;;;5109695;28;20028;-56
2024/01/02 17:22:54;;;;;;;21.88;10.38;;;5.50;99.90;;;;;;5109347;28;20040;-58
2024/01/02 17:25:26;;;;;;;22.08;10.00;;;5.50;99.90;;;;;;5108592;28;20066;-62
2024/01/02 17:27:52;;;;;;;25.85;10.45;;;5.40;99.90;;;;;;5110287;28;20032;-60
2024/01/02 17:30:23;;;;;;;23.70;9.80;;;5.40;99.90;;;;;;5109180;28;20043;-58
2024/01/02 17:32:52;;;;;;;22.15;10.35;;;5.40;99.90;;;;;;5108471;28;20092;-56
2024/01/02 17:35:28;;;;;;;21.58;9.90;;;5.40;99.90;;;;;;5108664;28;20055;-58
2024/01/02 17:37:54;;;;;;;21.45;10.10;;;5.40;99.90;;;;;;5108706;28;20028;-57
2024/01/02 17:40:22;;;;;;;27.70;12.07;;;5.40;99.90;;;;;;5108562;28;20028;-58
2024/01/02 17:42:48;;;;;;;27.02;11.57;;;5.40;99.90;;;;;;5108248;28;20867;-58
2024/01/02 17:45:22;;;;;;;26.30;11.02;;;5.40;99.90;;;;;;5108392;28;20031;-58
2024/01/02 17:47:55;;;;;;;22.73;11.30;;;5.40;99.90;;;;;;5108423;28;20394;-58
2024/01/02 17:50:21;;;;;;;24.42;11.30;;;5.40;99.90;;;;;;5108561;28;20519;-58
2024/01/02 17:52:51;;;;;;;25.83;12.70;;;5.40;99.90;;;;;;5109753;28;20386;-58
2024/01/02 17:55:23;;;;;;;24.30;10.85;;;5.40;99.90;;;;;;5106739;28;20115;-56
2024/01/02 17:58:09;;;;;;;25.02;11.18;;;5.40;99.90;;;;;;5106237;27;20034;-60
2024/01/02 18:00:41;;;;;;;27.20;10.30;;;5.30;99.90;;;;;;5114276;28;20031;-56
2024/01/02 18:03:29;;;;;;;24.05;9.57;;;5.30;99.90;;;;;;5115701;28;20032;-54
2024/01/02 18:06:13;;;;;;;23.70;9.95;;;5.30;99.90;;;;;;5116654;28;20110;-57
2024/01/02 18:08:58;;;;;;;20.50;8.77;;;5.30;99.90;;;;;;5117276;28;20045;-58
2024/01/02 18:11:27;;;;;;;15.70;7.32;;;5.40;99.90;;;;;;5121177;28;20039;-57
2024/01/02 18:14:10;;;;;;;16.70;7.30;;;5.40;99.90;;;;;;5125296;28;20024;-57
2024/01/02 18:17:08;;;;;;;14.45;6.28;;;5.40;99.90;;;;;;5121724;28;20482;-57
2024/01/02 18:20:11;;;;;;;19.75;6.93;;;5.40;99.90;;;;;;5120332;28;20031;-56
2024/01/02 18:22:47;;;;;;;17.10;6.63;;;5.50;99.90;;;;;;5113697;28;20036;-55
2024/01/02 18:25:26;;;;;;;21.75;8.13;;;5.50;99.90;;;;;;5109649;28;20059;-55
2024/01/02 18:28:22;;;;;;;15.68;6.93;;;5.50;99.90;;;;;;5108111;28;20032;-57
2024/01/02 18:31:10;;;;;;;18.13;7.03;;;5.50;99.90;;;;;;5108208;28;20051;-55
2024/01/02 18:33:39;;;;;;;17.30;5.97;;;5.50;99.90;;;;;;5042623;28;20092;-60
2024/01/02 18:36:32;;;;;;;15.45;6.70;;;5.40;99.90;;;;;;5108129;28;20071;-55
2024/01/02 18:39:21;;;;;;;16.50;6.40;;;5.40;99.90;;;;;;5060711;28;20116;-54
2024/01/02 18:41:50;;;;;;;14.98;6.75;;;5.40;99.90;;;;;;5105314;28;20053;-54
2024/01/02 18:44:33;;;;;;;13.55;5.72;;;5.40;99.90;;;;;;5107508;28;20035;-53
2024/01/02 18:47:10;;;;;;;14.50;5.70;;;5.30;99.90;;;;;;5107752;28;20043;-55
2024/01/02 18:49:43;;;;;;;12.90;5.65;;;5.30;99.90;;;;;;5106769;28;20115;-52
2024/01/02 18:52:31;;;;;;;16.17;6.22;;;5.30;99.90;;;;;;5107370;28;20050;-52
2024/01/02 18:55:05;;;;;;;15.57;6.68;;;5.30;99.90;;;;;;5097245;28;20043;-54
2024/01/02 18:57:33;;;;;;;14.02;6.20;;;5.30;99.90;;;;;;5105025;28;20254;-53
2024/01/02 19:00:00;;;;;;;14.82;6.63;;;5.30;99.90;;;;;;5107810;28;20019;-55
2024/01/02 19:02:50;;;;;;;18.42;6.90;;;5.30;99.90;;;;;;5106320;28;20046;-54
2024/01/02 19:05:36;;;;;;;17.50;6.78;;;5.30;99.90;;;;;;5107477;28;20031;-55
2024/01/02 19:08:10;;;;;;;18.20;6.75;;;5.30;99.90;;;;;;5107148;28;20126;-54
2024/01/02 19:10:37;;;;;;;13.73;6.38;;;5.20;99.90;;;;;;5106906;28;20038;-53
2024/01/02 19:13:08;;;;;;;14.82;7.10;;;5.20;99.90;;;;;;5106803;28;20034;-53
2024/01/02 19:15:35;;;;;;;13.25;6.55;;;5.20;99.90;;;;;;5106625;28;20028;-55
2024/01/02 19:18:01;;;;;;;;;;;5.20;99.90;;;;;;5107224;28;20101;-58
2024/01/02 19:20:28;;;;;;;13.80;5.95;;;5.20;99.90;;;;;;5106666;28;19969;-55
2024/01/02 19:23:00;;;;;;;12.95;5.30;;;5.20;99.90;;;;;;5106590;28;20073;-55
2024/01/02 19:25:27;;;;;;;13.57;6.18;;;5.20;99.90;;;;;;5106222;28;20177;-55
2024/01/02 19:27:54;;;;;;;;;;;5.20;99.90;;;;;;5107084;28;20086;-54
2024/01/02 19:30:21;;;;;;;13.93;6.78;;;5.20;99.90;;;;;;5107030;28;20324;-56
2024/01/02 19:32:47;;;;;;;13.90;6.57;;;5.20;99.90;;;;;;5106663;28;20517;-55
2024/01/02 19:35:13;;;;;;;14.02;6.68;;;5.20;99.90;;;;;;5105326;28;20043;-54
2024/01/02 19:37:38;;;;;;;15.00;6.05;;;5.20;99.90;;;;;;5106159;28;20478;-52
2024/01/02 19:40:10;;;;;;;13.13;6.30;;;5.30;99.90;;;;;;5106565;28;20031;-54
2024/01/02 19:42:36;;;;;;;15.10;6.30;;;5.30;99.90;;;;;;5105726;28;20136;-54
2024/01/02 19:45:02;;;;;;;16.95;6.95;;;5.30;99.90;;;;;;5105355;28;20040;-52
2024/01/02 19:47:28;;;;;;;12.52;6.03;;;5.30;99.90;;;;;;5105776;28;20027;-53
2024/01/02 19:49:55;;;;;;;14.80;6.10;;;5.20;99.90;;;;;;5104656;28;20035;-52
2024/01/02 19:52:21;;;;;;;;;;;5.20;99.90;;;;;;5111865;28;20035;-52
2024/01/02 19:54:47;;;;;;;14.98;6.50;;;5.30;99.90;;;;;;5106908;28;20381;-52
2024/01/02 19:57:16;;;;;;;11.98;6.70;;;5.20;99.90;;;;;;5105447;28;20493;-53
2024/01/02 19:59:46;;;;;;;15.80;6.40;;;5.20;99.90;;;;;;5109314;28;20043;-53
2024/01/02 20:02:26;;;;;;;12.13;6.05;;;5.20;99.90;;;;;;5109198;28;20587;-53
2024/01/02 20:04:52;;;;;;;18.35;7.15;;;5.20;99.90;;;;;;5112726;28;20083;-53
2024/01/02 20:07:33;;;;;;;13.33;6.53;;;5.20;99.90;;;;;;5117014;28;20026;-53
2024/01/02 20:10:07;;;;;;;9.95;5.15;;;5.20;99.90;;;;;;5116453;28;20073;-53
2024/01/02 20:12:36;;;;;;;16.27;6.10;;;5.10;99.90;;;;;;5115300;28;20772;-53
2024/01/02 20:15:03;;;;;;;12.57;6.32;;;5.10;99.90;;;;;;5112479;28;20039;-51
2024/01/02 20:17:31;;;;;;;13.93;6.82;;;5.10;99.90;;;;;;5096819;28;20034;-53
2024/01/02 20:19:57;;;;;;;14.25;5.55;;;5.10;99.90;;;;;;5120274;27;20043;-52
2024/01/02 20:22:27;;;;;;;14.00;6.28;;;5.10;99.90;;;;;;5117386;27;20621;-52
2024/01/02 20:24:55;;;;;;;13.43;6.35;;;5.00;99.90;;;;;;5106230;28;20039;-53
2024/01/02 20:27:26;;;;;;;12.95;6.47;;;5.10;99.90;;;;;;5106947;28;20062;-54
2024/01/02 20:29:56;;;;;;;15.60;6.18;;;5.10;99.90;;;;;;5107870;28;20111;-54
2024/01/02 20:32:26;;;;;;;13.13;5.88;;;5.10;99.90;;;;;;5109021;27;20067;-52
2024/01/02 20:34:55;;;;;;;14.25;6.28;;;5.10;99.90;;;;;;5114688;27;20023;-53
2024/01/02 20:37:23;;;;;;;13.82;5.57;;;5.10;99.90;;;;;;5117120;27;20039;-57
2024/01/02 20:39:54;;;;;;;12.98;6.28;;;5.10;99.90;;;;;;5117032;27;20019;-52
2024/01/02 20:42:25;;;;;;;11.48;5.22;;;5.10;99.90;;;;;;5115296;27;20517;-53
2024/01/02 20:44:59;;;;;;;13.30;6.50;;;5.10;99.90;;;;;;5119345;27;20027;-53
2024/01/02 20:47:36;;;;;;;11.77;6.13;;;5.10;99.90;;;;;;5092466;28;20505;-53
2024/01/02 20:50:14;;;;;;;12.70;6.47;;;5.10;99.90;;;;;;5118091;27;20127;-51
2024/01/02 20:52:40;;;;;;;;;;;5.00;99.90;;;;;;5114037;27;20051;-55
2024/01/02 20:55:13;;;;;;;13.18;5.43;;;5.00;99.90;;;;;;5118614;27;19907;-53
2024/01/02 20:57:41;;;;;;;12.05;6.60;;;5.00;99.90;;;;;;5126738;27;20027;-51
2024/01/02 21:00:19;;;;;;;11.95;6.07;;;5.00;99.90;;;;;;5129414;27;20095;-55
2024/01/02 21:02:45;;;;;;;11.13;6.00;;;5.00;99.90;;;;;;5128000;27;20532;-53
2024/01/02 21:05:46;;;;;;;12.50;6.45;;;5.00;99.90;;;;;;5123353;27;20043;-52
2024/01/02 21:08:32;;;;;;;12.95;5.72;;;5.00;99.90;;;;;;5111670;27;20177;-53
2024/01/02 21:11:04;;;;;;;14.00;5.70;;;5.00;99.90;;;;;;5118204;27;20042;-53
2024/01/02 21:13:42;;;;;;;11.35;5.18;;;5.00;99.90;;;;;;5112362;27;20023;-52
2024/01/02 21:16:12;;;;;;;;;;;5.00;99.90;;;;;;5115143;27;20019;-52
2024/01/02 21:18:46;;;;;;;16.23;4.82;;;5.00;99.90;;;;;;5118031;27;20423;-54
2024/01/02 21:21:35;;;;;;;11.27;4.93;;;5.00;99.90;;;;;;5127453;27;20118;-53
2024/01/02 21:24:26;;;;;;;9.77;5.15;;;5.00;99.90;;;;;;5090708;27;20124;-54
2024/01/02 21:26:53;;;;;;;10.35;4.88;;;5.00;99.90;;;;;;5109608;27;20031;-54
2024/01/02 21:29:20;;;;;;;15.45;5.82;;;5.00;99.90;;;;;;5099495;27;20031;-54
2024/01/02 21:31:46;;;;;;;16.13;6.10;;;5.00;99.90;;;;;;5086169;28;20855;-54
2024/01/02 21:34:12;;;;;;;17.42;5.85;;;5.00;99.90;;;;;;5088473;27;20022;-53
2024/01/02 21:36:38;;;;;;;13.25;6.20;;;5.00;99.90;;;;;;5087716;28;20073;-55
2024/01/02 21:39:05;;;;;;;13.63;5.70;;;5.00;99.90;;;;;;5078196;28;20661;-53
2024/01/02 21:41:32;;;;;;;11.85;5.93;;;5.00;99.90;;;;;;5094207;28;20414;-52
2024/01/02 21:44:18;;;;;;;12.52;5.00;;;5.00;99.90;;;;;;5093200;28;20032;-52
2024/01/02 21:46:44;;;;;;;12.52;6.93;;;5.00;99.90;;;;;;5097664;28;20554;-53
2024/01/02 21:49:28;;;;;;;14.50;6.75;;;5.10;99.90;;;;;;5094849;28;20023;-53
2024/01/02 21:51:57;;;;;;;11.60;5.65;;;5.00;99.90;;;;;;5086685;28;20082;-53
2024/01/02 21:54:44;;;;;;;14.27;4.82;;;5.00;99.90;;;;;;5074617;28;20065;-53
